createdAt,value
2019-04-01T00:00:17.540Z,34.38
2019-04-01T00:02:47.019Z,33.20
2019-04-01T00:05:16.488Z,34.75
2019-04-01T00:07:45.820Z,34.83
2019-04-01T00:10:15.205Z,32.38
2019-04-01T00:12:44.529Z,34.55
2019-04-01T00:15:13.923Z,33.55
2019-04-01T00:17:43.227Z,33.90
2019-04-01T00:20:12.631Z,33.33
2019-04-01T00:22:41.950Z,33.88
2019-04-01T00:25:12.561Z,35.55
2019-04-01T00:27:41.863Z,35.65
2019-04-01T00:30:11.368Z,35.83
2019-04-01T00:32:40.671Z,35.30
2019-04-01T00:35:10.005Z,35.43
2019-04-01T00:37:39.378Z,36.05
2019-04-01T00:40:09.221Z,35.83
2019-04-01T00:42:42.918Z,36.73
2019-04-01T00:45:13.863Z,35.78
2019-04-01T00:47:43.273Z,35.98
2019-04-01T00:50:12.712Z,36.17
2019-04-01T00:52:42.043Z,35.40
2019-04-01T00:55:11.514Z,36.30
2019-04-01T00:57:40.822Z,35.92
2019-04-01T01:00:11.968Z,35.68
2019-04-01T01:02:41.269Z,36.38
2019-04-01T01:05:10.743Z,35.38
2019-04-01T01:07:40.079Z,35.48
2019-04-01T01:10:09.925Z,36.77
2019-04-01T01:12:39.245Z,37.65
2019-04-01T01:15:09.003Z,34.63
2019-04-01T01:17:38.362Z,36.73
2019-04-01T01:20:08.551Z,36.70
2019-04-01T01:22:37.882Z,36.88
2019-04-01T01:25:07.528Z,36.50
2019-04-01T01:27:36.842Z,38.35
2019-04-01T01:30:07.692Z,36.30
2019-04-01T01:35:06.683Z,36.13
2019-04-01T01:37:36.039Z,36.93
2019-04-01T01:40:05.683Z,36.70
2019-04-01T01:42:34.987Z,36.60
2019-04-01T01:45:05.351Z,37.08
2019-04-01T01:47:34.680Z,37.03
2019-04-01T01:50:06.156Z,35.52
2019-04-01T01:52:35.458Z,35.50
2019-04-01T01:55:05.360Z,37.67
2019-04-01T01:57:34.677Z,38.93
2019-04-01T02:00:04.497Z,37.58
2019-04-01T02:02:35.469Z,38.10
2019-04-01T02:05:06.061Z,37.70
2019-04-01T02:07:35.480Z,37.28
2019-04-01T02:10:05.643Z,38.28
2019-04-01T02:12:34.947Z,37.90
2019-04-01T02:15:06.515Z,38.80
2019-04-01T02:17:35.825Z,37.83
2019-04-01T02:20:06.483Z,36.88
2019-04-01T02:22:35.810Z,37.85
2019-04-01T02:25:05.583Z,39.85
2019-04-01T02:27:34.916Z,38.40
2019-04-01T02:30:05.217Z,37.45
2019-04-01T02:32:34.593Z,38.85
2019-04-01T02:35:04.585Z,38.00
2019-04-01T02:37:33.908Z,39.47
2019-04-01T02:40:03.681Z,37.55
2019-04-01T02:42:33.013Z,37.80
2019-04-01T02:45:02.345Z,38.65
2019-04-01T02:47:31.732Z,38.50
2019-04-01T02:50:01.047Z,37.13
2019-04-01T02:52:30.362Z,37.23
2019-04-01T02:54:59.693Z,37.60
2019-04-01T02:57:28.987Z,36.50
2019-04-01T02:59:58.326Z,37.38
2019-04-01T03:02:27.616Z,38.63
2019-04-01T03:04:56.952Z,38.35
2019-04-01T03:07:26.254Z,37.83
2019-04-01T03:09:55.579Z,36.98
2019-04-01T03:12:25.993Z,36.90
2019-04-01T03:14:55.292Z,36.55
2019-04-01T03:17:24.621Z,35.83
2019-04-01T03:19:53.925Z,37.13
2019-04-01T03:22:23.339Z,36.42
2019-04-01T03:24:52.678Z,37.48
2019-04-01T03:27:22.344Z,36.55
2019-04-01T03:29:51.684Z,35.08
2019-04-01T03:32:21.017Z,38.00
2019-04-01T03:34:50.334Z,37.48
2019-04-01T03:37:20.876Z,36.53
2019-04-01T03:39:50.210Z,37.30
2019-04-01T03:42:19.544Z,37.60
2019-04-01T03:44:48.854Z,35.65
2019-04-01T03:47:18.261Z,34.75
2019-04-01T03:49:47.598Z,37.28
2019-04-01T03:52:17.002Z,38.50
2019-04-01T03:54:46.305Z,37.42
2019-04-01T03:57:15.628Z,37.78
2019-04-01T03:59:44.958Z,38.60
2019-04-01T04:02:14.531Z,37.75
2019-04-01T04:04:43.825Z,38.78
2019-04-01T04:07:13.150Z,37.95
2019-04-01T04:09:42.557Z,36.75
2019-04-01T04:12:11.918Z,38.40
2019-04-01T04:14:41.259Z,37.50
2019-04-01T04:17:11.177Z,37.73
2019-04-01T04:19:40.504Z,38.07
2019-04-01T04:22:09.955Z,38.80
2019-04-01T04:24:39.247Z,36.33
2019-04-01T04:27:11.063Z,39.92
2019-04-01T04:29:39.656Z,39.85
2019-04-01T04:32:08.991Z,39.35
2019-04-01T04:34:38.291Z,39.33
2019-04-01T04:37:07.631Z,39.00
2019-04-01T04:39:36.958Z,36.73
2019-04-01T04:42:06.303Z,38.50
2019-04-01T04:44:35.612Z,38.98
2019-04-01T04:47:04.977Z,35.92
2019-04-01T04:49:34.274Z,37.73
2019-04-01T04:52:04.730Z,37.80
2019-04-01T04:54:34.189Z,39.20
2019-04-01T04:57:03.532Z,39.42
2019-04-01T04:59:33.030Z,39.27
2019-04-01T05:02:02.367Z,38.53
2019-04-01T05:04:31.681Z,38.92
2019-04-01T05:07:00.999Z,41.65
2019-04-01T05:09:30.306Z,39.63
2019-04-01T05:11:59.644Z,39.38
2019-04-01T05:14:29.012Z,37.45
2019-04-01T05:16:58.335Z,39.53
2019-04-01T05:19:27.738Z,39.67
2019-04-01T05:21:57.783Z,41.23
2019-04-01T05:24:28.850Z,40.92
2019-04-01T05:26:59.472Z,41.67
2019-04-01T05:29:30.589Z,40.28
2019-04-01T05:32:01.536Z,39.20
2019-04-01T05:34:33.502Z,39.05
2019-04-01T05:37:02.886Z,39.88
2019-04-01T05:39:34.207Z,38.10
2019-04-01T05:42:03.940Z,39.83
2019-04-01T05:44:33.280Z,38.98
2019-04-01T05:47:02.655Z,39.78
2019-04-01T05:49:32.614Z,37.50
2019-04-01T05:52:02.006Z,38.80
2019-04-01T05:54:31.385Z,39.38
2019-04-01T05:57:00.948Z,41.25
2019-04-01T05:59:30.288Z,40.90
2019-04-01T06:01:59.667Z,43.13
2019-04-01T06:04:29.006Z,42.50
2019-04-01T06:06:58.756Z,43.23
2019-04-01T06:09:28.245Z,43.52
2019-04-01T06:11:57.574Z,41.80
2019-04-01T06:14:26.902Z,40.78
2019-04-01T06:16:56.244Z,43.10
2019-04-01T06:19:25.643Z,40.23
2019-04-01T06:21:55.544Z,41.33
2019-04-01T06:24:25.020Z,42.30
2019-04-01T06:26:54.540Z,40.28
2019-04-01T06:29:24.087Z,41.40
2019-04-01T06:31:53.385Z,40.12
2019-04-01T06:34:22.978Z,40.67
2019-04-01T06:36:52.516Z,40.58
2019-04-01T06:39:21.912Z,39.75
2019-04-01T06:41:51.631Z,39.65
2019-04-01T06:44:21.413Z,38.98
2019-04-01T06:46:50.844Z,39.98
2019-04-01T06:49:20.527Z,40.67
2019-04-01T06:51:49.979Z,40.40
2019-04-01T06:54:19.473Z,40.58
2019-04-01T06:56:48.848Z,39.27
2019-04-01T06:59:18.331Z,39.13
2019-04-01T07:01:47.786Z,38.88
2019-04-01T07:04:17.187Z,38.13
2019-04-01T07:06:46.503Z,37.35
2019-04-01T07:09:15.908Z,37.98
2019-04-01T07:11:45.356Z,38.92
2019-04-01T07:14:15.120Z,37.95
2019-04-01T07:16:44.451Z,38.78
2019-04-01T07:19:13.916Z,38.05
2019-04-01T07:21:43.243Z,38.33
2019-04-01T07:24:12.724Z,37.67
2019-04-01T07:26:42.119Z,36.03
2019-04-01T07:29:11.488Z,37.28
2019-04-01T07:31:40.814Z,36.53
2019-04-01T07:34:10.284Z,36.88
2019-04-01T07:36:39.728Z,36.17
2019-04-01T07:39:09.055Z,35.83
2019-04-01T07:41:38.360Z,36.77
2019-04-01T07:44:07.691Z,36.80
2019-04-01T07:46:37.065Z,35.50
2019-04-01T07:49:06.410Z,35.75
2019-04-01T07:51:38.469Z,36.05
2019-04-01T07:54:06.928Z,37.45
2019-04-01T07:56:36.423Z,36.40
2019-04-01T07:59:05.923Z,36.28
2019-04-01T08:01:35.380Z,36.23
2019-04-01T08:04:05.009Z,35.65
2019-04-01T08:06:34.348Z,35.73
2019-04-01T08:09:05.608Z,34.20
2019-04-01T08:11:35.333Z,36.63
2019-04-01T08:14:04.816Z,34.85
2019-04-01T08:16:34.194Z,37.05
2019-04-01T08:19:03.676Z,35.73
2019-04-01T08:21:33.284Z,36.55
2019-04-01T08:24:02.587Z,37.45
2019-04-01T08:26:31.996Z,37.30
2019-04-01T08:29:01.378Z,37.15
2019-04-01T08:31:30.781Z,37.30
2019-04-01T08:34:00.247Z,35.28
2019-04-01T08:36:29.644Z,34.58
2019-04-01T08:38:58.952Z,36.63
2019-04-01T08:41:28.295Z,35.95
2019-04-01T08:43:58.476Z,35.78
2019-04-01T08:46:27.803Z,34.88
2019-04-01T08:48:57.131Z,35.50
2019-04-01T08:51:27.542Z,33.73
2019-04-01T08:53:56.867Z,34.35
2019-04-01T08:56:28.356Z,34.43
2019-04-01T08:58:57.684Z,34.43
2019-04-01T09:01:34.947Z,35.00
2019-04-01T09:03:58.092Z,33.38
2019-04-01T09:06:27.738Z,33.50
2019-04-01T09:08:59.166Z,34.25
2019-04-01T09:11:28.852Z,35.52
2019-04-01T09:13:59.125Z,34.13
2019-04-01T09:16:29.244Z,33.67
2019-04-01T09:18:58.576Z,34.60
2019-04-01T09:21:27.883Z,33.88
2019-04-01T09:23:57.220Z,33.50
2019-04-01T09:26:26.546Z,34.03
2019-04-01T09:28:55.876Z,34.03
2019-04-01T09:31:25.177Z,31.40
2019-04-01T09:33:54.506Z,32.60
2019-04-01T09:36:23.848Z,32.33
2019-04-01T09:38:53.168Z,30.75
2019-04-01T09:41:22.520Z,31.40
2019-04-01T09:43:51.909Z,32.42
2019-04-01T09:46:21.304Z,30.75
2019-04-01T09:48:50.635Z,30.62
2019-04-01T09:51:19.949Z,30.82
2019-04-01T09:53:49.294Z,28.65
2019-04-01T09:56:18.601Z,28.47
2019-04-01T09:58:47.986Z,28.12
2019-04-01T10:01:17.397Z,29.75
2019-04-01T10:03:46.736Z,28.47
2019-04-01T10:06:16.052Z,27.58
2019-04-01T10:08:45.476Z,27.97
2019-04-01T10:11:14.776Z,27.45
2019-04-01T10:13:44.184Z,28.57
2019-04-01T10:16:13.588Z,29.10
2019-04-01T10:18:42.969Z,27.80
2019-04-01T10:21:12.292Z,27.33
2019-04-01T10:23:41.602Z,27.77
2019-04-01T10:26:10.938Z,27.43
2019-04-01T10:28:40.290Z,26.67
2019-04-01T10:31:09.705Z,29.60
2019-04-01T10:33:39.036Z,27.50
2019-04-01T10:36:08.430Z,28.50
2019-04-01T10:38:38.847Z,28.15
2019-04-01T10:41:08.317Z,27.58
2019-04-01T10:43:37.866Z,28.10
2019-04-01T10:46:07.184Z,27.23
2019-04-01T10:48:36.499Z,27.63
2019-04-01T10:51:05.869Z,26.20
2019-04-01T10:53:35.256Z,25.90
2019-04-01T10:56:04.690Z,25.12
2019-04-01T10:58:34.135Z,24.40
2019-04-01T11:01:03.534Z,25.45
2019-04-01T11:03:32.921Z,24.98
2019-04-01T11:06:02.256Z,24.05
2019-04-01T11:08:31.801Z,24.23
2019-04-01T11:11:01.234Z,23.70
2019-04-01T11:13:30.657Z,23.92
2019-04-01T11:15:59.984Z,23.02
2019-04-01T11:18:29.292Z,23.35
2019-04-01T11:20:58.623Z,22.82
2019-04-01T11:23:27.970Z,22.52
2019-04-01T11:25:57.271Z,23.67
2019-04-01T11:28:26.674Z,22.70
2019-04-01T11:30:55.989Z,21.82
2019-04-01T11:33:25.569Z,20.85
2019-04-01T11:35:54.933Z,21.33
2019-04-01T11:38:24.363Z,20.17
2019-04-01T11:40:53.830Z,22.65
2019-04-01T11:43:23.625Z,22.27
2019-04-01T11:45:53.656Z,20.62
2019-04-01T11:48:24.180Z,21.25
2019-04-01T11:50:53.963Z,21.10
2019-04-01T11:53:23.723Z,19.90
2019-04-01T11:55:53.027Z,19.02
2019-04-01T11:58:22.375Z,20.95
2019-04-01T12:00:51.689Z,21.55
2019-04-01T12:03:21.094Z,19.87
2019-04-01T12:05:50.425Z,19.02
2019-04-01T12:08:19.815Z,19.42
2019-04-01T12:10:49.137Z,20.25
2019-04-01T12:13:18.451Z,20.72
2019-04-01T12:15:47.864Z,18.57
2019-04-01T12:18:18.288Z,18.27
2019-04-01T12:20:47.637Z,19.10
2019-04-01T12:23:16.945Z,20.10
2019-04-01T12:25:46.279Z,19.52
2019-04-01T12:28:15.607Z,20.08
2019-04-01T12:30:45.079Z,19.15
2019-04-01T12:33:14.559Z,20.02
2019-04-01T12:35:43.899Z,20.27
2019-04-01T12:38:13.235Z,18.73
2019-04-01T12:40:42.538Z,16.40
2019-04-01T12:43:11.867Z,18.17
2019-04-01T12:45:41.181Z,17.60
2019-04-01T12:48:10.527Z,17.00
2019-04-01T12:50:39.856Z,17.92
2019-04-01T12:53:09.324Z,18.48
2019-04-01T12:55:40.398Z,16.93
2019-04-01T12:58:09.717Z,18.75
2019-04-01T13:00:40.120Z,18.45
2019-04-01T13:03:09.453Z,18.42
2019-04-01T13:05:38.759Z,18.42
2019-04-01T13:08:08.092Z,18.62
2019-04-01T13:10:37.431Z,19.52
2019-04-01T13:13:06.763Z,19.23
2019-04-01T13:15:36.067Z,19.75
2019-04-01T13:18:05.484Z,20.48
2019-04-01T13:20:38.121Z,19.10
2019-04-01T13:23:06.644Z,18.92
2019-04-01T13:25:36.061Z,64.25
2019-04-01T13:28:05.464Z,20.20
2019-04-01T13:30:34.836Z,19.30
2019-04-01T13:33:04.206Z,19.17
2019-04-01T13:35:33.543Z,18.62
2019-04-01T13:38:02.861Z,19.02
2019-04-01T13:40:32.210Z,17.13
2019-04-01T13:43:04.415Z,16.37
2019-04-01T13:45:32.668Z,17.45
2019-04-01T13:48:02.008Z,18.30
2019-04-01T13:50:31.750Z,17.75
2019-04-01T13:53:02.996Z,16.12
2019-04-01T13:55:32.328Z,16.17
2019-04-01T13:58:01.643Z,17.35
2019-04-01T14:00:30.964Z,16.23
2019-04-01T14:03:00.485Z,15.20
2019-04-01T14:05:30.105Z,13.10
2019-04-01T14:07:59.442Z,14.97
2019-04-01T14:10:28.740Z,14.07
2019-04-01T14:12:58.077Z,13.47
2019-04-01T14:15:27.379Z,13.50
2019-04-01T14:17:56.730Z,12.23
2019-04-01T14:20:26.043Z,12.33
2019-04-01T14:22:55.456Z,12.07
2019-04-01T14:25:24.781Z,10.57
2019-04-01T14:27:54.099Z,12.13
2019-04-01T14:30:23.436Z,12.43
2019-04-01T14:32:52.734Z,12.73
2019-04-01T14:35:23.855Z,12.03
2019-04-01T14:37:58.049Z,12.10
2019-04-01T14:40:25.610Z,10.88
2019-04-01T14:42:55.074Z,13.63
2019-04-01T14:45:24.407Z,13.28
2019-04-01T14:47:57.521Z,33.30
2019-04-01T14:50:24.823Z,11.10
2019-04-01T14:52:54.136Z,12.15
2019-04-01T14:55:23.527Z,12.45
2019-04-01T14:57:52.860Z,14.23
2019-04-01T15:00:22.411Z,14.35
2019-04-01T15:02:51.743Z,14.18
2019-04-01T15:05:21.256Z,14.70
2019-04-01T15:07:50.634Z,15.83
2019-04-01T15:10:20.130Z,16.33
2019-04-01T15:13:03.983Z,14.38
2019-04-01T15:15:20.471Z,15.35
2019-04-01T15:17:49.805Z,14.30
2019-04-01T15:20:19.254Z,14.13
2019-04-01T15:22:48.591Z,15.53
2019-04-01T15:25:17.968Z,16.53
2019-04-01T15:27:47.342Z,17.77
2019-04-01T15:30:17.016Z,18.70
2019-04-01T15:32:46.331Z,17.15
2019-04-01T15:35:15.736Z,17.25
2019-04-01T15:37:45.050Z,18.50
2019-04-01T15:40:14.811Z,20.02
2019-04-01T15:42:45.092Z,16.52
2019-04-01T15:45:14.601Z,16.87
2019-04-01T15:47:43.932Z,17.40
2019-04-01T15:50:27.256Z,17.45
2019-04-01T15:52:44.389Z,16.85
2019-04-01T15:55:14.833Z,18.05
2019-04-01T15:57:44.172Z,18.57
2019-04-01T16:00:13.976Z,18.90
2019-04-01T16:02:43.379Z,19.20
2019-04-01T16:05:12.883Z,19.37
2019-04-01T16:07:42.367Z,18.15
2019-04-01T16:10:12.428Z,18.32
2019-04-01T16:12:41.844Z,17.50
2019-04-01T16:15:11.515Z,17.20
2019-04-01T16:17:40.854Z,18.73
2019-04-01T16:20:10.449Z,18.55
2019-04-01T16:22:39.783Z,19.80
2019-04-01T16:25:09.358Z,19.00
2019-04-01T16:27:38.697Z,20.23
2019-04-01T16:30:08.975Z,19.42
2019-04-01T16:35:07.787Z,19.57
2019-04-01T16:37:37.356Z,20.62
2019-04-01T16:40:07.198Z,18.40
2019-04-01T16:42:36.562Z,19.95
2019-04-01T16:45:08.033Z,22.37
2019-04-01T16:47:37.457Z,20.40
2019-04-01T16:50:10.484Z,24.72
2019-04-01T16:52:39.970Z,21.95
2019-04-01T16:55:11.319Z,22.07
2019-04-01T16:57:40.759Z,21.57
2019-04-01T17:00:14.536Z,22.10
2019-04-01T17:02:42.765Z,20.97
2019-04-01T17:05:14.298Z,20.97
2019-04-01T17:07:43.770Z,20.95
2019-04-01T17:10:21.110Z,20.32
2019-04-01T17:12:50.653Z,21.70
2019-04-01T17:15:21.196Z,22.17
2019-04-01T17:17:50.784Z,22.55
2019-04-01T17:20:20.400Z,22.00
2019-04-01T17:22:49.793Z,21.20
2019-04-01T17:25:19.278Z,23.40
2019-04-01T17:27:48.612Z,23.15
2019-04-01T17:30:18.339Z,23.52
2019-04-01T17:32:47.670Z,23.02
2019-04-01T17:35:17.076Z,22.55
2019-04-01T17:37:46.403Z,23.85
2019-04-01T17:40:17.155Z,22.25
2019-04-01T17:42:47.085Z,45.25
2019-04-01T17:45:28.675Z,21.48
2019-04-01T17:48:00.502Z,23.50
2019-04-01T17:50:30.428Z,21.55
2019-04-01T17:53:00.019Z,21.20
2019-04-01T17:55:31.509Z,23.60
2019-04-01T17:58:00.896Z,23.07
2019-04-01T18:00:31.979Z,23.60
2019-04-01T18:03:01.355Z,22.67
2019-04-01T18:05:30.670Z,21.75
2019-04-01T18:08:00.145Z,21.65
2019-04-01T18:10:29.597Z,22.80
2019-04-01T18:12:58.940Z,21.42
2019-04-01T18:15:28.255Z,23.18
2019-04-01T18:17:57.757Z,23.22
2019-04-01T18:20:27.186Z,22.87
2019-04-01T18:22:57.227Z,22.48
2019-04-01T18:25:26.933Z,21.42
2019-04-01T18:27:56.556Z,22.58
2019-04-01T18:30:26.305Z,23.50
2019-04-01T18:32:55.624Z,22.23
2019-04-01T18:35:26.129Z,21.90
2019-04-01T18:37:55.500Z,22.00
2019-04-01T18:40:32.841Z,22.32
2019-04-01T18:42:55.991Z,23.20
2019-04-01T18:45:25.343Z,22.32
2019-04-01T18:47:54.655Z,21.62
2019-04-01T18:50:24.153Z,21.77
2019-04-01T18:52:53.454Z,23.22
2019-04-01T18:55:22.821Z,22.75
2019-04-01T18:57:52.141Z,22.05
2019-04-01T19:00:21.685Z,20.20
2019-04-01T19:02:51.736Z,21.80
2019-04-01T19:05:21.298Z,23.57
2019-04-01T19:07:50.777Z,23.18
2019-04-01T19:10:20.416Z,23.92
2019-04-01T19:12:49.839Z,22.67
2019-04-01T19:15:19.254Z,24.90
2019-04-01T19:17:49.732Z,24.57
2019-04-01T19:20:19.208Z,24.02
2019-04-01T19:22:48.648Z,23.55
2019-04-01T19:25:17.958Z,23.52
2019-04-01T19:27:47.363Z,23.22
2019-04-01T19:30:17.155Z,25.23
2019-04-01T19:32:46.476Z,24.30
2019-04-01T19:35:16.113Z,26.42
2019-04-01T19:37:45.411Z,25.52
2019-04-01T19:40:15.298Z,26.55
2019-04-01T19:42:44.627Z,26.87
2019-04-01T19:45:14.032Z,25.80
2019-04-01T19:47:43.336Z,27.10
2019-04-01T19:50:14.070Z,25.35
2019-04-01T19:52:44.482Z,26.82
2019-04-01T19:55:14.134Z,27.02
2019-04-01T19:57:43.441Z,27.17
2019-04-01T20:00:26.719Z,27.30
2019-04-01T20:02:44.348Z,27.22
2019-04-01T20:05:13.933Z,27.55
2019-04-01T20:07:44.181Z,26.73
2019-04-01T20:10:14.288Z,28.40
2019-04-01T20:12:43.674Z,27.20
2019-04-01T20:15:13.528Z,28.52
2019-04-01T20:17:42.867Z,28.67
2019-04-01T20:20:14.717Z,28.73
2019-04-01T20:22:44.179Z,27.58
2019-04-01T20:25:13.928Z,29.45
2019-04-01T20:27:44.276Z,27.82
2019-04-01T20:32:43.827Z,28.75
2019-04-01T20:35:23.119Z,29.12
2019-04-01T20:37:44.620Z,28.98
2019-04-01T20:40:14.525Z,30.40
2019-04-01T20:42:44.026Z,29.02
2019-04-01T20:45:13.591Z,30.68
2019-04-01T20:47:44.392Z,28.73
2019-04-01T20:50:14.442Z,28.77
2019-04-01T20:52:43.767Z,30.62
2019-04-01T20:55:13.958Z,29.57
2019-04-01T20:57:43.545Z,27.87
2019-04-01T21:00:14.091Z,31.80
2019-04-01T21:02:43.574Z,30.65
2019-04-01T21:05:13.241Z,30.10
2019-04-01T21:07:42.543Z,32.65
2019-04-01T21:10:13.168Z,30.08
2019-04-01T21:15:33.042Z,30.55
2019-04-01T21:18:02.345Z,32.80
2019-04-01T21:20:31.680Z,30.85
2019-04-01T21:23:00.980Z,32.08
2019-04-01T21:25:30.606Z,31.90
2019-04-01T21:28:00.008Z,32.98
2019-04-01T21:30:29.331Z,32.25
2019-04-01T21:32:58.709Z,30.95
2019-04-01T21:35:28.042Z,31.57
2019-04-01T21:37:57.381Z,31.40
2019-04-01T21:40:27.943Z,30.62
2019-04-01T21:42:57.814Z,32.38
2019-04-01T21:45:27.153Z,32.55
2019-04-01T21:47:56.461Z,33.05
2019-04-01T21:50:25.796Z,32.83
2019-04-01T21:52:55.096Z,35.40
2019-04-01T21:55:25.735Z,34.40
2019-04-01T21:57:55.090Z,33.18
2019-04-01T22:00:26.408Z,33.10
2019-04-01T22:02:57.327Z,32.17
2019-04-01T22:05:26.714Z,31.70
2019-04-01T22:07:56.039Z,32.90
2019-04-01T22:10:25.335Z,32.73
2019-04-01T22:12:56.243Z,34.63
2019-04-01T22:15:25.855Z,33.08
2019-04-01T22:17:55.180Z,34.05
2019-04-01T22:20:24.482Z,33.35
2019-04-01T22:22:53.800Z,33.65
2019-04-01T22:25:23.187Z,32.83
2019-04-01T22:27:53.335Z,32.48
2019-04-01T22:30:23.111Z,33.00
2019-04-01T22:32:52.441Z,34.15
2019-04-01T22:35:21.772Z,33.08
2019-04-01T22:37:51.078Z,32.83
2019-04-01T22:40:20.434Z,33.23
2019-04-01T22:42:49.865Z,34.50
2019-04-01T22:45:20.431Z,33.78
2019-04-01T22:47:49.880Z,33.48
2019-04-01T22:50:19.183Z,33.67
2019-04-01T22:52:48.498Z,34.85
2019-04-01T22:55:17.798Z,34.35
2019-04-01T22:57:47.140Z,34.65
2019-04-01T23:00:18.506Z,33.23
2019-04-01T23:02:48.261Z,33.78
2019-04-01T23:05:17.653Z,33.92
2019-04-01T23:07:48.051Z,35.00
2019-04-01T23:10:17.352Z,35.55
2019-04-01T23:12:46.677Z,35.15
2019-04-01T23:15:16.248Z,34.00
2019-04-01T23:17:45.727Z,34.75
2019-04-01T23:20:15.197Z,34.63
2019-04-01T23:22:44.508Z,36.38
2019-04-01T23:25:13.996Z,35.85
2019-04-01T23:27:56.019Z,36.95
2019-04-01T23:30:25.384Z,35.78
2019-04-01T23:32:54.680Z,36.45
2019-04-01T23:35:24.097Z,34.13
2019-04-01T23:37:53.398Z,34.95
2019-04-01T23:40:22.728Z,37.30
2019-04-01T23:42:52.061Z,41.20
2019-04-01T23:45:22.103Z,37.15
2019-04-01T23:47:51.427Z,35.25
2019-04-01T23:50:20.792Z,37.15
2019-04-01T23:53:09.464Z,37.60
2019-04-01T23:55:38.765Z,36.88
2019-04-01T23:58:08.097Z,37.70
